createdAt,value
2022-08-21T00:00:29.742Z,23.60
2022-08-21T00:05:34.128Z,23.60
2022-08-21T00:10:38.908Z,23.60
2022-08-21T00:15:43.060Z,23.60
2022-08-21T00:20:47.022Z,23.70
2022-08-21T00:25:51.563Z,23.70
2022-08-21T00:30:54.661Z,23.70
2022-08-21T00:35:58.056Z,23.70
2022-08-21T00:41:36.342Z,23.70
2022-08-21T00:46:28.569Z,23.70
2022-08-21T00:51:38.676Z,23.70
2022-08-21T00:56:43.965Z,23.70
2022-08-21T01:01:47.577Z,23.70
2022-08-21T01:06:52.443Z,23.60
2022-08-21T01:11:57.027Z,23.70
2022-08-21T01:17:01.347Z,23.70
2022-08-21T01:22:05.931Z,23.70
2022-08-21T01:27:09.319Z,23.60
2022-08-21T01:32:15.715Z,23.60
2022-08-21T01:37:22.127Z,23.60
2022-08-21T01:42:25.222Z,23.60
2022-08-21T01:47:28.832Z,23.60
2022-08-21T01:52:33.249Z,23.60
2022-08-21T01:57:36.434Z,23.60
2022-08-21T02:02:39.650Z,23.60
2022-08-21T02:07:46.170Z,23.70
2022-08-21T02:12:49.366Z,23.60
2022-08-21T02:17:54.478Z,23.60
2022-08-21T02:22:59.098Z,23.70
2022-08-21T02:28:05.825Z,23.70
2022-08-21T02:33:10.834Z,23.60
2022-08-21T02:38:17.697Z,23.70
2022-08-21T02:43:21.631Z,23.60
2022-08-21T02:48:26.602Z,23.70
2022-08-21T02:53:32.264Z,23.60
2022-08-21T02:58:37.124Z,23.70
2022-08-21T03:03:42.299Z,23.70
2022-08-21T03:08:47.216Z,23.70
2022-08-21T03:13:50.257Z,23.70
2022-08-21T03:18:53.312Z,23.70
2022-08-21T03:23:57.869Z,23.70
2022-08-21T03:29:00.884Z,23.70
2022-08-21T03:34:03.946Z,23.60
2022-08-21T03:39:08.385Z,23.70
2022-08-21T03:44:11.419Z,23.70
2022-08-21T03:49:14.582Z,23.80
2022-08-21T03:54:18.973Z,23.70
2022-08-21T03:59:22.210Z,23.70
2022-08-21T04:04:25.387Z,23.80
2022-08-21T04:09:29.940Z,23.70
2022-08-21T04:14:33.343Z,23.70
2022-08-21T04:19:36.400Z,23.70
2022-08-21T04:24:40.841Z,23.70
2022-08-21T04:29:43.858Z,23.70
2022-08-21T04:34:46.918Z,23.70
2022-08-21T04:39:53.563Z,23.80
2022-08-21T04:44:57.386Z,23.70
2022-08-21T04:50:00.851Z,23.70
2022-08-21T04:55:05.905Z,23.80
2022-08-21T05:00:14.274Z,23.70
2022-08-21T05:05:18.041Z,23.80
2022-08-21T05:10:22.767Z,23.70
2022-08-21T05:15:26.006Z,23.70
2022-08-21T05:20:29.156Z,23.80
2022-08-21T05:25:33.571Z,23.70
2022-08-21T05:30:38.015Z,23.70
2022-08-21T05:35:41.673Z,23.70
2022-08-21T05:40:46.469Z,23.70
2022-08-21T05:45:49.618Z,23.70
2022-08-21T05:50:55.224Z,23.70
2022-08-21T05:55:59.634Z,23.60
2022-08-21T06:01:03.842Z,23.50
2022-08-21T06:06:07.423Z,23.30
2022-08-21T06:11:12.135Z,23.20
2022-08-21T06:16:17.557Z,23.10
2022-08-21T06:21:21.135Z,23.20
2022-08-21T06:26:25.701Z,23.20
2022-08-21T06:31:29.957Z,23.00
2022-08-21T06:36:32.996Z,23.00
2022-08-21T06:41:39.252Z,23.00
2022-08-21T06:46:43.288Z,23.00
2022-08-21T06:51:50.603Z,23.00
2022-08-21T06:56:55.025Z,22.70
2022-08-21T07:01:58.212Z,22.50
2022-08-21T07:07:01.513Z,22.60
2022-08-21T07:12:06.396Z,22.60
2022-08-21T07:17:09.462Z,22.70
2022-08-21T07:22:13.136Z,22.80
2022-08-21T07:27:17.936Z,22.90
2022-08-21T07:32:21.515Z,22.90
2022-08-21T07:37:25.267Z,23.00
2022-08-21T07:42:29.667Z,23.00
2022-08-21T07:47:42.140Z,23.10
2022-08-21T07:52:46.540Z,23.10
2022-08-21T07:57:51.362Z,23.10
2022-08-21T08:02:55.549Z,23.00
2022-08-21T08:07:59.162Z,23.00
2022-08-21T08:13:04.009Z,23.00
2022-08-21T08:18:07.199Z,23.20
2022-08-21T08:23:12.239Z,23.30
2022-08-21T08:28:17.836Z,23.40
2022-08-21T08:33:21.786Z,23.40
2022-08-21T08:38:27.362Z,23.50
2022-08-21T08:43:34.128Z,23.60
2022-08-21T08:48:50.621Z,23.60
2022-08-21T08:54:01.694Z,23.60
2022-08-21T08:59:16.339Z,23.80
2022-08-21T09:04:26.111Z,23.80
2022-08-21T09:09:38.991Z,23.90
2022-08-21T09:14:54.139Z,23.80
2022-08-21T09:20:17.343Z,24.00
2022-08-21T09:25:24.102Z,24.10
2022-08-21T09:30:31.731Z,24.20
2022-08-21T09:35:36.350Z,24.30
2022-08-21T09:40:42.607Z,24.30
2022-08-21T09:45:48.395Z,24.40
2022-08-21T09:50:53.607Z,24.40
2022-08-21T09:56:16.219Z,24.40
2022-08-21T10:01:22.973Z,24.50
2022-08-21T10:06:29.405Z,24.50
2022-08-21T10:11:35.231Z,24.60
2022-08-21T10:16:52.183Z,24.50
2022-08-21T10:22:08.946Z,24.60
2022-08-21T10:27:21.821Z,24.60
2022-08-21T10:32:43.392Z,24.70
2022-08-21T10:37:58.994Z,24.70
2022-08-21T10:43:14.760Z,24.70
2022-08-21T10:48:26.927Z,24.70
2022-08-21T10:53:49.605Z,24.70
2022-08-21T10:59:06.555Z,24.80
2022-08-21T11:04:17.712Z,24.80
2022-08-21T11:09:24.604Z,24.80
2022-08-21T11:14:36.188Z,24.90
2022-08-21T11:19:47.138Z,24.80
2022-08-21T11:24:57.008Z,24.80
2022-08-21T11:30:02.514Z,24.80
2022-08-21T11:35:15.639Z,24.80
2022-08-21T11:40:28.883Z,24.80
2022-08-21T11:45:41.832Z,24.80
2022-08-21T11:50:47.227Z,24.80
2022-08-21T11:55:58.020Z,24.80
2022-08-21T12:01:06.903Z,24.80
2022-08-21T12:06:13.961Z,24.80
2022-08-21T12:11:31.089Z,24.80
2022-08-21T12:16:36.093Z,24.80
2022-08-21T12:21:53.715Z,24.80
2022-08-21T12:26:58.628Z,24.80
2022-08-21T12:32:06.266Z,24.90
2022-08-21T12:37:20.761Z,24.90
2022-08-21T12:42:30.775Z,24.90
2022-08-21T12:47:38.718Z,24.90
2022-08-21T12:53:00.185Z,24.90
2022-08-21T12:58:03.656Z,24.90
2022-08-21T13:03:06.770Z,24.90
2022-08-21T13:08:14.565Z,24.90
2022-08-21T13:13:25.657Z,25.00
2022-08-21T13:18:34.065Z,24.90
2022-08-21T13:23:38.558Z,25.00
2022-08-21T13:28:41.659Z,25.00
2022-08-21T13:33:45.017Z,25.00
2022-08-21T13:38:49.635Z,25.00
2022-08-21T13:44:00.151Z,25.00
2022-08-21T13:49:07.001Z,25.00
2022-08-21T13:54:23.118Z,25.10
2022-08-21T13:59:28.696Z,25.00
2022-08-21T14:04:37.896Z,25.00
2022-08-21T14:09:45.642Z,25.00
2022-08-21T14:14:48.820Z,25.00
2022-08-21T14:19:51.925Z,25.00
2022-08-21T14:25:06.687Z,25.00
2022-08-21T14:30:18.160Z,25.00
2022-08-21T14:35:23.773Z,25.00
2022-08-21T14:40:29.161Z,25.00
2022-08-21T14:45:33.394Z,25.00
2022-08-21T14:50:36.464Z,25.10
2022-08-21T14:56:13.899Z,25.00
2022-08-21T15:01:19.427Z,25.10
2022-08-21T15:06:22.740Z,25.10
2022-08-21T15:11:42.362Z,25.10
2022-08-21T15:16:46.477Z,25.20
2022-08-21T15:21:50.125Z,25.20
2022-08-21T15:26:55.931Z,25.30
2022-08-21T15:32:00.734Z,25.30
2022-08-21T15:37:06.319Z,25.30
2022-08-21T15:42:13.425Z,25.40
2022-08-21T15:47:19.435Z,25.30
2022-08-21T15:52:24.114Z,25.40
2022-08-21T15:57:29.048Z,25.30
2022-08-21T16:02:34.019Z,25.30
2022-08-21T16:07:37.061Z,25.30
2022-08-21T16:12:45.405Z,25.40
2022-08-21T16:17:50.111Z,25.30
2022-08-21T16:22:54.271Z,25.30
2022-08-21T16:28:02.278Z,25.40
2022-08-21T16:33:08.460Z,25.40
2022-08-21T16:38:11.532Z,25.40
2022-08-21T16:43:16.577Z,25.40
2022-08-21T16:48:19.586Z,25.40
2022-08-21T16:53:22.666Z,25.40
2022-08-21T16:58:29.436Z,25.40
2022-08-21T17:03:36.083Z,25.40
2022-08-21T17:08:39.214Z,25.40
2022-08-21T17:13:43.753Z,25.40
2022-08-21T17:18:47.768Z,25.50
2022-08-21T17:23:55.022Z,25.50
2022-08-21T17:28:59.604Z,25.40
2022-08-21T17:34:02.852Z,25.40
2022-08-21T17:39:06.851Z,25.30
2022-08-21T17:44:16.606Z,25.30
2022-08-21T17:49:21.558Z,25.20
2022-08-21T17:54:25.374Z,25.20
2022-08-21T17:59:29.882Z,25.10
2022-08-21T18:04:33.099Z,25.00
2022-08-21T18:09:36.206Z,24.90
2022-08-21T18:14:42.154Z,24.80
2022-08-21T18:19:49.303Z,24.80
2022-08-21T18:24:52.521Z,24.80
2022-08-21T18:29:58.929Z,24.60
2022-08-21T18:35:05.782Z,24.60
2022-08-21T18:40:10.529Z,24.50
2022-08-21T18:45:18.017Z,24.50
2022-08-21T18:50:24.991Z,24.40
2022-08-21T18:55:30.112Z,24.40
2022-08-21T19:00:37.829Z,24.30
2022-08-21T19:05:47.962Z,24.00
2022-08-21T19:10:53.118Z,24.00
2022-08-21T19:16:00.089Z,24.00
2022-08-21T19:21:03.347Z,23.90
2022-08-21T19:26:09.329Z,23.90
2022-08-21T19:31:16.640Z,23.80
2022-08-21T19:36:22.830Z,23.70
2022-08-21T19:41:32.439Z,23.70
2022-08-21T19:46:40.355Z,23.80
2022-08-21T19:51:44.844Z,23.90
2022-08-21T19:56:48.649Z,23.90
2022-08-21T20:01:53.870Z,23.90
2022-08-21T20:06:57.303Z,24.00
2022-08-21T20:12:09.917Z,24.00
2022-08-21T20:17:17.855Z,24.00
2022-08-21T20:22:20.981Z,24.00
2022-08-21T20:27:26.385Z,24.00
2022-08-21T20:32:32.345Z,24.00
2022-08-21T20:37:37.401Z,24.00
2022-08-21T20:42:44.675Z,24.00
2022-08-21T20:53:15.780Z,24.00
2022-08-21T21:04:02.819Z,24.00
2022-08-21T21:09:19.179Z,24.00
2022-08-21T21:14:28.469Z,24.00
2022-08-21T21:19:38.747Z,24.00
2022-08-21T21:24:51.259Z,24.00
2022-08-21T21:30:01.598Z,24.00
2022-08-21T21:35:07.327Z,24.00
2022-08-21T21:40:31.929Z,24.00
2022-08-21T21:45:43.125Z,24.00
2022-08-21T21:50:54.237Z,24.00
2022-08-21T21:56:14.559Z,24.00
2022-08-21T22:01:27.886Z,23.90
2022-08-21T22:06:41.571Z,24.00
2022-08-21T22:12:03.983Z,23.90
2022-08-21T22:17:21.210Z,23.90
2022-08-21T22:22:29.645Z,23.90
2022-08-21T22:27:36.315Z,23.90
2022-08-21T22:32:45.645Z,23.90
2022-08-21T22:37:52.543Z,23.90
2022-08-21T22:43:01.341Z,23.80
2022-08-21T22:53:36.669Z,23.80
2022-08-21T22:58:53.031Z,23.80
2022-08-21T23:03:58.238Z,23.80
2022-08-21T23:09:09.396Z,23.80
2022-08-21T23:14:14.236Z,23.70
2022-08-21T23:19:26.378Z,23.70
2022-08-21T23:24:51.930Z,23.70
2022-08-21T23:30:03.245Z,23.70
2022-08-21T23:35:14.972Z,23.60
2022-08-21T23:40:38.774Z,23.60
2022-08-21T23:46:11.103Z,23.60
2022-08-21T23:51:16.826Z,23.60
2022-08-21T23:56:34.608Z,23.60
